sensor_id;sensor_type;location;lat;lon;timestamp;P1;durP1;ratioP1;P2;durP2;ratioP2
20318;SDS011;10317;47.254;11.314;2024-02-26T00:01:55;1.45;;;1.40;;
20318;SDS011;10317;47.254;11.314;2024-02-26T00:04:21;2.47;;;2.15;;
20318;SDS011;10317;47.254;11.314;2024-02-26T00:06:47;1.90;;;1.90;;
20318;SDS011;10317;47.254;11.314;2024-02-26T00:09:15;2.63;;;2.42;;
20318;SDS011;10317;47.254;11.314;2024-02-26T00:11:41;2.42;;;2.33;;
20318;SDS011;10317;47.254;11.314;2024-02-26T00:14:06;1.95;;;1.85;;
20318;SDS011;10317;47.254;11.314;2024-02-26T00:16:32;2.15;;;2.05;;
20318;SDS011;10317;47.254;11.314;2024-02-26T00:18:58;3.88;;;1.98;;
20318;SDS011;10317;47.254;11.314;2024-02-26T00:21:23;5.18;;;2.97;;
20318;SDS011;10317;47.254;11.314;2024-02-26T00:23:49;3.83;;;2.50;;
20318;SDS011;10317;47.254;11.314;2024-02-26T00:26:18;4.68;;;2.80;;
20318;SDS011;10317;47.254;11.314;2024-02-26T00:28:43;4.10;;;2.60;;
20318;SDS011;10317;47.254;11.314;2024-02-26T00:31:09;2.67;;;2.40;;
20318;SDS011;10317;47.254;11.314;2024-02-26T00:33:35;3.15;;;2.80;;
20318;SDS011;10317;47.254;11.314;2024-02-26T00:36:01;2.83;;;2.63;;
20318;SDS011;10317;47.254;11.314;2024-02-26T00:38:27;3.03;;;2.72;;
20318;SDS011;10317;47.254;11.314;2024-02-26T00:40:52;4.05;;;3.72;;
20318;SDS011;10317;47.254;11.314;2024-02-26T00:43:18;2.35;;;2.15;;
20318;SDS011;10317;47.254;11.314;2024-02-26T00:45:44;2.95;;;2.65;;
20318;SDS011;10317;47.254;11.314;2024-02-26T00:48:11;2.55;;;2.15;;
20318;SDS011;10317;47.254;11.314;2024-02-26T00:50:38;3.40;;;2.45;;
20318;SDS011;10317;47.254;11.314;2024-02-26T00:53:05;2.22;;;2.03;;
20318;SDS011;10317;47.254;11.314;2024-02-26T00:55:31;2.70;;;2.55;;
20318;SDS011;10317;47.254;11.314;2024-02-26T00:57:56;3.75;;;2.28;;
20318;SDS011;10317;47.254;11.314;2024-02-26T01:00:22;2.88;;;2.50;;
20318;SDS011;10317;47.254;11.314;2024-02-26T01:02:47;1.98;;;1.88;;
20318;SDS011;10317;47.254;11.314;2024-02-26T01:05:13;1.80;;;1.70;;
20318;SDS011;10317;47.254;11.314;2024-02-26T01:07:41;2.10;;;1.88;;
20318;SDS011;10317;47.254;11.314;2024-02-26T01:10:07;2.58;;;2.17;;
20318;SDS011;10317;47.254;11.314;2024-02-26T01:12:33;1.85;;;1.70;;
20318;SDS011;10317;47.254;11.314;2024-02-26T01:15:00;1.85;;;1.75;;
20318;SDS011;10317;47.254;11.314;2024-02-26T01:17:29;1.80;;;1.70;;
20318;SDS011;10317;47.254;11.314;2024-02-26T01:19:55;2.38;;;1.70;;
20318;SDS011;10317;47.254;11.314;2024-02-26T01:22:20;1.77;;;1.67;;
20318;SDS011;10317;47.254;11.314;2024-02-26T01:24:46;1.52;;;1.42;;
20318;SDS011;10317;47.254;11.314;2024-02-26T01:27:12;1.35;;;1.25;;
20318;SDS011;10317;47.254;11.314;2024-02-26T01:29:39;1.50;;;1.50;;
20318;SDS011;10317;47.254;11.314;2024-02-26T01:32:05;1.48;;;1.30;;
20318;SDS011;10317;47.254;11.314;2024-02-26T01:34:31;1.40;;;1.25;;
20318;SDS011;10317;47.254;11.314;2024-02-26T01:36:57;3.78;;;2.33;;
20318;SDS011;10317;47.254;11.314;2024-02-26T01:39:22;1.45;;;1.35;;
20318;SDS011;10317;47.254;11.314;2024-02-26T01:41:48;1.30;;;1.27;;
20318;SDS011;10317;47.254;11.314;2024-02-26T01:44:14;2.38;;;1.40;;
20318;SDS011;10317;47.254;11.314;2024-02-26T01:46:39;1.27;;;1.23;;
20318;SDS011;10317;47.254;11.314;2024-02-26T01:49:06;2.25;;;1.60;;
20318;SDS011;10317;47.254;11.314;2024-02-26T01:51:33;1.60;;;1.45;;
20318;SDS011;10317;47.254;11.314;2024-02-26T01:54:00;2.00;;;1.80;;
20318;SDS011;10317;47.254;11.314;2024-02-26T01:56:28;1.60;;;1.50;;
20318;SDS011;10317;47.254;11.314;2024-02-26T01:58:57;1.88;;;1.40;;
20318;SDS011;10317;47.254;11.314;2024-02-26T02:01:27;1.65;;;1.60;;
20318;SDS011;10317;47.254;11.314;2024-02-26T02:03:55;1.88;;;1.40;;
20318;SDS011;10317;47.254;11.314;2024-02-26T02:06:23;3.58;;;1.40;;
20318;SDS011;10317;47.254;11.314;2024-02-26T02:08:49;3.28;;;1.42;;
20318;SDS011;10317;47.254;11.314;2024-02-26T02:11:14;1.65;;;1.55;;
20318;SDS011;10317;47.254;11.314;2024-02-26T02:13:41;1.13;;;1.13;;
20318;SDS011;10317;47.254;11.314;2024-02-26T02:16:07;0.95;;;0.95;;
20318;SDS011;10317;47.254;11.314;2024-02-26T02:18:33;1.80;;;1.70;;
20318;SDS011;10317;47.254;11.314;2024-02-26T02:21:02;1.48;;;1.40;;
20318;SDS011;10317;47.254;11.314;2024-02-26T02:23:28;1.30;;;1.30;;
20318;SDS011;10317;47.254;11.314;2024-02-26T02:25:54;1.20;;;1.20;;
20318;SDS011;10317;47.254;11.314;2024-02-26T02:28:21;1.10;;;1.10;;
20318;SDS011;10317;47.254;11.314;2024-02-26T02:30:47;1.15;;;1.15;;
20318;SDS011;10317;47.254;11.314;2024-02-26T02:33:14;13.23;;;1.95;;
20318;SDS011;10317;47.254;11.314;2024-02-26T02:35:40;1.50;;;1.40;;
20318;SDS011;10317;47.254;11.314;2024-02-26T02:38:06;1.42;;;1.33;;
20318;SDS011;10317;47.254;11.314;2024-02-26T02:40:32;1.73;;;1.63;;
20318;SDS011;10317;47.254;11.314;2024-02-26T02:42:57;1.35;;;1.35;;
20318;SDS011;10317;47.254;11.314;2024-02-26T02:45:24;1.10;;;1.10;;
20318;SDS011;10317;47.254;11.314;2024-02-26T02:47:50;1.40;;;1.40;;
20318;SDS011;10317;47.254;11.314;2024-02-26T02:50:16;1.40;;;1.30;;
20318;SDS011;10317;47.254;11.314;2024-02-26T02:52:42;2.25;;;1.38;;
20318;SDS011;10317;47.254;11.314;2024-02-26T02:55:07;1.15;;;1.13;;
20318;SDS011;10317;47.254;11.314;2024-02-26T02:57:33;1.58;;;1.48;;
20318;SDS011;10317;47.254;11.314;2024-02-26T02:59:59;1.27;;;1.27;;
20318;SDS011;10317;47.254;11.314;2024-02-26T03:02:24;2.72;;;1.20;;
20318;SDS011;10317;47.254;11.314;2024-02-26T03:04:50;1.35;;;1.20;;
20318;SDS011;10317;47.254;11.314;2024-02-26T03:07:16;0.95;;;0.95;;
20318;SDS011;10317;47.254;11.314;2024-02-26T03:09:42;1.02;;;1.02;;
20318;SDS011;10317;47.254;11.314;2024-02-26T03:12:08;1.23;;;1.20;;
20318;SDS011;10317;47.254;11.314;2024-02-26T03:14:34;1.58;;;1.58;;
20318;SDS011;10317;47.254;11.314;2024-02-26T03:16:59;1.30;;;1.30;;
20318;SDS011;10317;47.254;11.314;2024-02-26T03:19:25;1.20;;;1.20;;
20318;SDS011;10317;47.254;11.314;2024-02-26T03:21:51;1.00;;;1.00;;
20318;SDS011;10317;47.254;11.314;2024-02-26T03:24:16;1.35;;;1.30;;
20318;SDS011;10317;47.254;11.314;2024-02-26T03:26:42;1.17;;;1.17;;
20318;SDS011;10317;47.254;11.314;2024-02-26T03:29:08;1.23;;;1.15;;
20318;SDS011;10317;47.254;11.314;2024-02-26T03:31:33;1.92;;;1.92;;
20318;SDS011;10317;47.254;11.314;2024-02-26T03:33:59;0.98;;;0.98;;
20318;SDS011;10317;47.254;11.314;2024-02-26T03:36:25;3.42;;;1.20;;
20318;SDS011;10317;47.254;11.314;2024-02-26T03:38:51;1.50;;;1.30;;
20318;SDS011;10317;47.254;11.314;2024-02-26T03:41:16;1.88;;;1.75;;
20318;SDS011;10317;47.254;11.314;2024-02-26T03:43:42;1.85;;;1.75;;
20318;SDS011;10317;47.254;11.314;2024-02-26T03:46:08;1.30;;;1.30;;
20318;SDS011;10317;47.254;11.314;2024-02-26T03:48:36;1.45;;;1.35;;
20318;SDS011;10317;47.254;11.314;2024-02-26T03:51:02;1.90;;;1.40;;
20318;SDS011;10317;47.254;11.314;2024-02-26T03:53:28;1.92;;;1.83;;
20318;SDS011;10317;47.254;11.314;2024-02-26T03:55:53;1.55;;;1.45;;
20318;SDS011;10317;47.254;11.314;2024-02-26T03:58:20;1.50;;;1.40;;
20318;SDS011;10317;47.254;11.314;2024-02-26T04:00:46;1.65;;;1.55;;
20318;SDS011;10317;47.254;11.314;2024-02-26T04:03:12;1.30;;;1.30;;
20318;SDS011;10317;47.254;11.314;2024-02-26T04:05:38;1.42;;;1.42;;
20318;SDS011;10317;47.254;11.314;2024-02-26T04:08:04;1.20;;;1.20;;
20318;SDS011;10317;47.254;11.314;2024-02-26T04:10:32;2.17;;;1.42;;
20318;SDS011;10317;47.254;11.314;2024-02-26T04:13:00;1.27;;;1.23;;
20318;SDS011;10317;47.254;11.314;2024-02-26T04:15:26;1.30;;;1.30;;
20318;SDS011;10317;47.254;11.314;2024-02-26T04:17:51;1.60;;;1.50;;
20318;SDS011;10317;47.254;11.314;2024-02-26T04:20:17;1.60;;;1.60;;
20318;SDS011;10317;47.254;11.314;2024-02-26T04:22:43;2.42;;;1.52;;
20318;SDS011;10317;47.254;11.314;2024-02-26T04:25:09;1.75;;;1.70;;
20318;SDS011;10317;47.254;11.314;2024-02-26T04:27:35;1.33;;;1.33;;
20318;SDS011;10317;47.254;11.314;2024-02-26T04:30:00;1.20;;;1.20;;
20318;SDS011;10317;47.254;11.314;2024-02-26T04:32:26;2.50;;;1.42;;
20318;SDS011;10317;47.254;11.314;2024-02-26T04:34:52;1.52;;;1.52;;
20318;SDS011;10317;47.254;11.314;2024-02-26T04:37:19;1.52;;;1.42;;
20318;SDS011;10317;47.254;11.314;2024-02-26T04:39:44;1.30;;;1.30;;
20318;SDS011;10317;47.254;11.314;2024-02-26T04:42:10;1.98;;;1.90;;
20318;SDS011;10317;47.254;11.314;2024-02-26T04:44:36;4.88;;;2.08;;
20318;SDS011;10317;47.254;11.314;2024-02-26T04:47:02;2.42;;;2.15;;
20318;SDS011;10317;47.254;11.314;2024-02-26T04:49:27;3.97;;;2.15;;
20318;SDS011;10317;47.254;11.314;2024-02-26T04:51:53;2.20;;;2.10;;
20318;SDS011;10317;47.254;11.314;2024-02-26T04:54:19;1.60;;;1.50;;
20318;SDS011;10317;47.254;11.314;2024-02-26T04:56:45;2.22;;;2.08;;
20318;SDS011;10317;47.254;11.314;2024-02-26T04:59:11;4.97;;;2.90;;
20318;SDS011;10317;47.254;11.314;2024-02-26T05:01:36;2.50;;;2.33;;
20318;SDS011;10317;47.254;11.314;2024-02-26T05:04:02;2.08;;;1.98;;
20318;SDS011;10317;47.254;11.314;2024-02-26T05:06:28;2.28;;;2.10;;
20318;SDS011;10317;47.254;11.314;2024-02-26T05:08:54;2.35;;;2.25;;
20318;SDS011;10317;47.254;11.314;2024-02-26T05:11:20;2.67;;;2.00;;
20318;SDS011;10317;47.254;11.314;2024-02-26T05:13:45;3.42;;;1.88;;
20318;SDS011;10317;47.254;11.314;2024-02-26T05:16:12;2.15;;;1.95;;
20318;SDS011;10317;47.254;11.314;2024-02-26T05:18:38;1.88;;;1.80;;
20318;SDS011;10317;47.254;11.314;2024-02-26T05:21:04;1.90;;;1.85;;
20318;SDS011;10317;47.254;11.314;2024-02-26T05:23:30;2.10;;;1.98;;
20318;SDS011;10317;47.254;11.314;2024-02-26T05:25:55;1.92;;;1.92;;
20318;SDS011;10317;47.254;11.314;2024-02-26T05:28:21;2.53;;;2.20;;
20318;SDS011;10317;47.254;11.314;2024-02-26T05:30:47;3.40;;;2.63;;
20318;SDS011;10317;47.254;11.314;2024-02-26T05:33:13;2.33;;;2.22;;
20318;SDS011;10317;47.254;11.314;2024-02-26T05:35:38;3.80;;;2.75;;
20318;SDS011;10317;47.254;11.314;2024-02-26T05:38:05;3.58;;;3.28;;
20318;SDS011;10317;47.254;11.314;2024-02-26T05:40:31;2.67;;;2.47;;
20318;SDS011;10317;47.254;11.314;2024-02-26T05:42:56;1.90;;;1.80;;
20318;SDS011;10317;47.254;11.314;2024-02-26T05:45:22;2.25;;;2.05;;
20318;SDS011;10317;47.254;11.314;2024-02-26T05:47:47;2.00;;;1.90;;
20318;SDS011;10317;47.254;11.314;2024-02-26T05:50:14;1.55;;;1.55;;
20318;SDS011;10317;47.254;11.314;2024-02-26T05:52:40;2.30;;;1.95;;
20318;SDS011;10317;47.254;11.314;2024-02-26T05:55:06;1.83;;;1.73;;
20318;SDS011;10317;47.254;11.314;2024-02-26T05:57:33;2.15;;;1.98;;
20318;SDS011;10317;47.254;11.314;2024-02-26T05:59:59;2.03;;;1.92;;
20318;SDS011;10317;47.254;11.314;2024-02-26T06:02:29;2.05;;;1.95;;
20318;SDS011;10317;47.254;11.314;2024-02-26T06:04:55;1.60;;;1.50;;
20318;SDS011;10317;47.254;11.314;2024-02-26T06:07:21;2.05;;;1.80;;
20318;SDS011;10317;47.254;11.314;2024-02-26T06:09:47;1.63;;;1.63;;
20318;SDS011;10317;47.254;11.314;2024-02-26T06:12:13;3.33;;;2.20;;
20318;SDS011;10317;47.254;11.314;2024-02-26T06:14:39;1.92;;;1.80;;
20318;SDS011;10317;47.254;11.314;2024-02-26T06:17:04;2.25;;;1.70;;
20318;SDS011;10317;47.254;11.314;2024-02-26T06:19:31;3.92;;;2.70;;
20318;SDS011;10317;47.254;11.314;2024-02-26T06:21:56;3.78;;;2.78;;
20318;SDS011;10317;47.254;11.314;2024-02-26T06:24:22;3.67;;;2.72;;
20318;SDS011;10317;47.254;11.314;2024-02-26T06:26:48;3.33;;;2.95;;
20318;SDS011;10317;47.254;11.314;2024-02-26T06:29:15;3.17;;;2.88;;
20318;SDS011;10317;47.254;11.314;2024-02-26T06:31:40;4.95;;;2.80;;
20318;SDS011;10317;47.254;11.314;2024-02-26T06:34:06;2.70;;;2.50;;
20318;SDS011;10317;47.254;11.314;2024-02-26T06:36:31;3.90;;;3.20;;
20318;SDS011;10317;47.254;11.314;2024-02-26T06:38:58;2.65;;;2.45;;
20318;SDS011;10317;47.254;11.314;2024-02-26T06:41:24;3.35;;;2.97;;
20318;SDS011;10317;47.254;11.314;2024-02-26T06:43:54;3.58;;;2.72;;
20318;SDS011;10317;47.254;11.314;2024-02-26T06:46:20;3.60;;;2.88;;
20318;SDS011;10317;47.254;11.314;2024-02-26T06:48:47;4.15;;;3.47;;
20318;SDS011;10317;47.254;11.314;2024-02-26T06:51:13;2.70;;;2.38;;
20318;SDS011;10317;47.254;11.314;2024-02-26T06:53:39;3.80;;;2.60;;
20318;SDS011;10317;47.254;11.314;2024-02-26T06:56:05;3.53;;;3.03;;
20318;SDS011;10317;47.254;11.314;2024-02-26T06:58:31;3.22;;;2.92;;
20318;SDS011;10317;47.254;11.314;2024-02-26T07:00:56;3.55;;;2.65;;
20318;SDS011;10317;47.254;11.314;2024-02-26T07:03:22;4.80;;;2.72;;
20318;SDS011;10317;47.254;11.314;2024-02-26T07:05:49;3.15;;;2.83;;
20318;SDS011;10317;47.254;11.314;2024-02-26T07:08:15;2.65;;;2.45;;
20318;SDS011;10317;47.254;11.314;2024-02-26T07:10:41;6.55;;;2.92;;
20318;SDS011;10317;47.254;11.314;2024-02-26T07:13:07;2.97;;;2.78;;
20318;SDS011;10317;47.254;11.314;2024-02-26T07:15:32;3.20;;;2.67;;
20318;SDS011;10317;47.254;11.314;2024-02-26T07:17:58;3.17;;;2.88;;
20318;SDS011;10317;47.254;11.314;2024-02-26T07:20:28;2.60;;;2.40;;
20318;SDS011;10317;47.254;11.314;2024-02-26T07:22:56;2.97;;;2.78;;
20318;SDS011;10317;47.254;11.314;2024-02-26T07:25:22;3.15;;;2.85;;
20318;SDS011;10317;47.254;11.314;2024-02-26T07:27:49;3.90;;;2.83;;
20318;SDS011;10317;47.254;11.314;2024-02-26T07:30:15;2.45;;;2.25;;
20318;SDS011;10317;47.254;11.314;2024-02-26T07:32:42;5.10;;;3.35;;
20318;SDS011;10317;47.254;11.314;2024-02-26T07:35:07;3.22;;;2.75;;
20318;SDS011;10317;47.254;11.314;2024-02-26T07:37:33;2.70;;;2.50;;
20318;SDS011;10317;47.254;11.314;2024-02-26T07:39:59;2.95;;;2.72;;
20318;SDS011;10317;47.254;11.314;2024-02-26T07:42:25;6.18;;;3.22;;
20318;SDS011;10317;47.254;11.314;2024-02-26T07:44:51;6.53;;;3.80;;
20318;SDS011;10317;47.254;11.314;2024-02-26T07:47:17;3.95;;;3.65;;
20318;SDS011;10317;47.254;11.314;2024-02-26T07:49:43;3.97;;;3.20;;
20318;SDS011;10317;47.254;11.314;2024-02-26T07:52:09;5.97;;;3.33;;
20318;SDS011;10317;47.254;11.314;2024-02-26T07:54:35;4.70;;;2.53;;
20318;SDS011;10317;47.254;11.314;2024-02-26T07:57:01;5.55;;;3.03;;
20318;SDS011;10317;47.254;11.314;2024-02-26T07:59:30;3.67;;;2.95;;
20318;SDS011;10317;47.254;11.314;2024-02-26T08:01:56;3.05;;;2.58;;
20318;SDS011;10317;47.254;11.314;2024-02-26T08:04:22;3.40;;;2.50;;
20318;SDS011;10317;47.254;11.314;2024-02-26T08:06:47;2.95;;;2.70;;
20318;SDS011;10317;47.254;11.314;2024-02-26T08:09:13;3.38;;;3.08;;
20318;SDS011;10317;47.254;11.314;2024-02-26T08:11:39;3.50;;;3.08;;
20318;SDS011;10317;47.254;11.314;2024-02-26T08:14:04;5.72;;;3.65;;
20318;SDS011;10317;47.254;11.314;2024-02-26T08:16:30;2.85;;;2.65;;
20318;SDS011;10317;47.254;11.314;2024-02-26T08:18:56;3.17;;;2.67;;
20318;SDS011;10317;47.254;11.314;2024-02-26T08:21:21;3.25;;;2.95;;
20318;SDS011;10317;47.254;11.314;2024-02-26T08:23:47;3.00;;;2.70;;
20318;SDS011;10317;47.254;11.314;2024-02-26T08:26:13;2.53;;;2.35;;
20318;SDS011;10317;47.254;11.314;2024-02-26T08:28:38;2.55;;;2.45;;
20318;SDS011;10317;47.254;11.314;2024-02-26T08:31:04;3.63;;;2.72;;
20318;SDS011;10317;47.254;11.314;2024-02-26T08:33:30;3.95;;;3.50;;
20318;SDS011;10317;47.254;11.314;2024-02-26T08:35:56;2.63;;;2.45;;
20318;SDS011;10317;47.254;11.314;2024-02-26T08:38:21;3.33;;;2.17;;
20318;SDS011;10317;47.254;11.314;2024-02-26T08:40:48;5.47;;;2.45;;
20318;SDS011;10317;47.254;11.314;2024-02-26T08:43:14;7.10;;;3.05;;
20318;SDS011;10317;47.254;11.314;2024-02-26T08:45:39;3.20;;;2.65;;
20318;SDS011;10317;47.254;11.314;2024-02-26T08:48:05;3.72;;;3.03;;
20318;SDS011;10317;47.254;11.314;2024-02-26T08:50:31;3.55;;;2.17;;
20318;SDS011;10317;47.254;11.314;2024-02-26T08:52:57;5.50;;;2.55;;
20318;SDS011;10317;47.254;11.314;2024-02-26T08:55:22;4.40;;;2.65;;
20318;SDS011;10317;47.254;11.314;2024-02-26T08:57:48;2.75;;;2.25;;
20318;SDS011;10317;47.254;11.314;2024-02-26T09:00:14;2.80;;;2.60;;
20318;SDS011;10317;47.254;11.314;2024-02-26T09:02:45;4.32;;;2.83;;
20318;SDS011;10317;47.254;11.314;2024-02-26T09:05:12;3.67;;;3.15;;
20318;SDS011;10317;47.254;11.314;2024-02-26T09:07:37;2.38;;;2.28;;
20318;SDS011;10317;47.254;11.314;2024-02-26T09:10:03;3.05;;;2.60;;
20318;SDS011;10317;47.254;11.314;2024-02-26T09:12:30;2.17;;;1.98;;
20318;SDS011;10317;47.254;11.314;2024-02-26T09:14:55;4.78;;;1.90;;
20318;SDS011;10317;47.254;11.314;2024-02-26T09:17:22;3.90;;;2.10;;
20318;SDS011;10317;47.254;11.314;2024-02-26T09:19:48;2.75;;;1.77;;
20318;SDS011;10317;47.254;11.314;2024-02-26T09:22:14;1.70;;;1.60;;
20318;SDS011;10317;47.254;11.314;2024-02-26T09:24:39;3.35;;;2.50;;
20318;SDS011;10317;47.254;11.314;2024-02-26T09:27:05;2.97;;;2.17;;
20318;SDS011;10317;47.254;11.314;2024-02-26T09:29:31;4.20;;;2.30;;
20318;SDS011;10317;47.254;11.314;2024-02-26T09:31:57;2.53;;;2.42;;
20318;SDS011;10317;47.254;11.314;2024-02-26T09:34:23;2.97;;;2.78;;
20318;SDS011;10317;47.254;11.314;2024-02-26T09:36:49;4.28;;;3.10;;
20318;SDS011;10317;47.254;11.314;2024-02-26T09:39:15;2.92;;;2.67;;
20318;SDS011;10317;47.254;11.314;2024-02-26T09:41:45;6.10;;;3.75;;
20318;SDS011;10317;47.254;11.314;2024-02-26T09:44:11;4.75;;;3.20;;
20318;SDS011;10317;47.254;11.314;2024-02-26T09:46:40;3.97;;;2.70;;
20318;SDS011;10317;47.254;11.314;2024-02-26T09:49:05;4.72;;;3.03;;
20318;SDS011;10317;47.254;11.314;2024-02-26T09:51:33;4.82;;;3.00;;
20318;SDS011;10317;47.254;11.314;2024-02-26T09:53:59;5.03;;;2.70;;
20318;SDS011;10317;47.254;11.314;2024-02-26T09:56:28;2.42;;;2.33;;
20318;SDS011;10317;47.254;11.314;2024-02-26T09:58:55;7.57;;;2.60;;
20318;SDS011;10317;47.254;11.314;2024-02-26T10:01:21;2.95;;;2.50;;
20318;SDS011;10317;47.254;11.314;2024-02-26T10:03:51;1.90;;;1.80;;
20318;SDS011;10317;47.254;11.314;2024-02-26T10:06:20;2.63;;;2.33;;
20318;SDS011;10317;47.254;11.314;2024-02-26T10:08:46;1.95;;;1.80;;
20318;SDS011;10317;47.254;11.314;2024-02-26T10:11:13;2.05;;;1.95;;
20318;SDS011;10317;47.254;11.314;2024-02-26T10:13:39;3.60;;;2.03;;
20318;SDS011;10317;47.254;11.314;2024-02-26T10:16:06;1.95;;;1.85;;
20318;SDS011;10317;47.254;11.314;2024-02-26T10:18:48;2.50;;;2.25;;
20318;SDS011;10317;47.254;11.314;2024-02-26T10:21:21;3.58;;;2.42;;
20318;SDS011;10317;47.254;11.314;2024-02-26T10:23:47;4.30;;;2.20;;
20318;SDS011;10317;47.254;11.314;2024-02-26T10:26:14;3.17;;;2.70;;
20318;SDS011;10317;47.254;11.314;2024-02-26T10:28:44;2.65;;;2.50;;
20318;SDS011;10317;47.254;11.314;2024-02-26T10:31:10;2.80;;;2.50;;
20318;SDS011;10317;47.254;11.314;2024-02-26T10:33:37;2.95;;;2.67;;
20318;SDS011;10317;47.254;11.314;2024-02-26T10:36:06;4.10;;;2.75;;
20318;SDS011;10317;47.254;11.314;2024-02-26T10:38:33;2.88;;;2.55;;
20318;SDS011;10317;47.254;11.314;2024-02-26T10:40:59;4.53;;;2.88;;
20318;SDS011;10317;47.254;11.314;2024-02-26T10:43:27;4.32;;;2.92;;
20318;SDS011;10317;47.254;11.314;2024-02-26T10:45:54;3.22;;;2.45;;
20318;SDS011;10317;47.254;11.314;2024-02-26T10:48:20;2.80;;;2.10;;
20318;SDS011;10317;47.254;11.314;2024-02-26T10:50:47;3.05;;;2.22;;
20318;SDS011;10317;47.254;11.314;2024-02-26T10:53:15;6.10;;;2.10;;
20318;SDS011;10317;47.254;11.314;2024-02-26T10:55:44;5.00;;;2.00;;
20318;SDS011;10317;47.254;11.314;2024-02-26T10:58:14;6.05;;;1.85;;
20318;SDS011;10317;47.254;11.314;2024-02-26T11:00:41;2.25;;;1.92;;
20318;SDS011;10317;47.254;11.314;2024-02-26T11:03:08;3.03;;;2.03;;
20318;SDS011;10317;47.254;11.314;2024-02-26T11:05:35;2.33;;;2.13;;
20318;SDS011;10317;47.254;11.314;2024-02-26T11:08:02;1.98;;;1.70;;
20318;SDS011;10317;47.254;11.314;2024-02-26T11:10:29;2.20;;;1.85;;
20318;SDS011;10317;47.254;11.314;2024-02-26T11:12:57;1.58;;;1.48;;
20318;SDS011;10317;47.254;11.314;2024-02-26T11:15:26;3.03;;;1.65;;
20318;SDS011;10317;47.254;11.314;2024-02-26T11:17:53;2.28;;;1.60;;
20318;SDS011;10317;47.254;11.314;2024-02-26T11:20:21;3.03;;;1.77;;
20318;SDS011;10317;47.254;11.314;2024-02-26T11:22:48;2.13;;;1.70;;
20318;SDS011;10317;47.254;11.314;2024-02-26T11:25:14;3.00;;;1.85;;
20318;SDS011;10317;47.254;11.314;2024-02-26T11:27:46;2.05;;;1.95;;
20318;SDS011;10317;47.254;11.314;2024-02-26T11:30:20;3.20;;;2.22;;
20318;SDS011;10317;47.254;11.314;2024-02-26T11:32:48;2.92;;;1.90;;
20318;SDS011;10317;47.254;11.314;2024-02-26T11:35:14;2.05;;;1.85;;
20318;SDS011;10317;47.254;11.314;2024-02-26T11:37:56;2.25;;;2.00;;
20318;SDS011;10317;47.254;11.314;2024-02-26T11:40:26;3.55;;;1.95;;
20318;SDS011;10317;47.254;11.314;2024-02-26T11:42:52;2.03;;;1.92;;
20318;SDS011;10317;47.254;11.314;2024-02-26T11:48:13;1.92;;;1.73;;
20318;SDS011;10317;47.254;11.314;2024-02-26T11:50:47;1.95;;;1.75;;
20318;SDS011;10317;47.254;11.314;2024-02-26T11:56:11;4.35;;;2.10;;
20318;SDS011;10317;47.254;11.314;2024-02-26T11:58:40;1.92;;;1.83;;
20318;SDS011;10317;47.254;11.314;2024-02-26T12:01:35;1.90;;;1.70;;
20318;SDS011;10317;47.254;11.314;2024-02-26T12:04:04;1.80;;;1.70;;
20318;SDS011;10317;47.254;11.314;2024-02-26T12:06:31;3.92;;;2.20;;
20318;SDS011;10317;47.254;11.314;2024-02-26T12:09:05;2.47;;;1.63;;
20318;SDS011;10317;47.254;11.314;2024-02-26T12:11:30;3.85;;;1.90;;
20318;SDS011;10317;47.254;11.314;2024-02-26T12:13:56;2.63;;;2.00;;
20318;SDS011;10317;47.254;11.314;2024-02-26T12:16:38;1.83;;;1.73;;
20318;SDS011;10317;47.254;11.314;2024-02-26T12:19:05;1.73;;;1.63;;
20318;SDS011;10317;47.254;11.314;2024-02-26T12:21:35;2.03;;;1.73;;
20318;SDS011;10317;47.254;11.314;2024-02-26T12:24:12;2.08;;;1.80;;
20318;SDS011;10317;47.254;11.314;2024-02-26T12:26:41;2.88;;;1.90;;
20318;SDS011;10317;47.254;11.314;2024-02-26T12:29:07;5.13;;;2.10;;
20318;SDS011;10317;47.254;11.314;2024-02-26T12:31:34;2.60;;;1.88;;
20318;SDS011;10317;47.254;11.314;2024-02-26T12:34:02;2.15;;;1.98;;
20318;SDS011;10317;47.254;11.314;2024-02-26T12:36:29;1.75;;;1.25;;
20318;SDS011;10317;47.254;11.314;2024-02-26T12:38:55;1.80;;;1.70;;
20318;SDS011;10317;47.254;11.314;2024-02-26T12:41:21;3.58;;;1.58;;
20318;SDS011;10317;47.254;11.314;2024-02-26T12:43:48;2.08;;;1.65;;
20318;SDS011;10317;47.254;11.314;2024-02-26T12:46:14;1.55;;;1.55;;
20318;SDS011;10317;47.254;11.314;2024-02-26T12:48:43;1.75;;;1.55;;
20318;SDS011;10317;47.254;11.314;2024-02-26T12:51:10;3.33;;;1.48;;
20318;SDS011;10317;47.254;11.314;2024-02-26T12:53:37;4.00;;;2.00;;
20318;SDS011;10317;47.254;11.314;2024-02-26T12:56:05;1.90;;;1.80;;
20318;SDS011;10317;47.254;11.314;2024-02-26T12:58:32;1.67;;;1.58;;
20318;SDS011;10317;47.254;11.314;2024-02-26T13:00:59;1.80;;;1.70;;
20318;SDS011;10317;47.254;11.314;2024-02-26T13:03:25;2.83;;;1.40;;
20318;SDS011;10317;47.254;11.314;2024-02-26T13:05:52;4.38;;;1.60;;
20318;SDS011;10317;47.254;11.314;2024-02-26T13:08:22;2.78;;;1.90;;
20318;SDS011;10317;47.254;11.314;2024-02-26T13:10:49;1.95;;;1.50;;
20318;SDS011;10317;47.254;11.314;2024-02-26T13:13:16;1.85;;;1.48;;
20318;SDS011;10317;47.254;11.314;2024-02-26T13:15:43;1.23;;;1.20;;
20318;SDS011;10317;47.254;11.314;2024-02-26T13:18:09;1.45;;;1.35;;
20318;SDS011;10317;47.254;11.314;2024-02-26T13:20:36;2.80;;;1.55;;
20318;SDS011;10317;47.254;11.314;2024-02-26T13:23:03;1.13;;;1.10;;
20318;SDS011;10317;47.254;11.314;2024-02-26T13:25:30;1.98;;;1.42;;
20318;SDS011;10317;47.254;11.314;2024-02-26T13:28:15;2.13;;;1.90;;
20318;SDS011;10317;47.254;11.314;2024-02-26T13:30:49;1.20;;;1.20;;
20318;SDS011;10317;47.254;11.314;2024-02-26T13:33:21;1.65;;;1.55;;
20318;SDS011;10317;47.254;11.314;2024-02-26T13:35:47;2.28;;;1.50;;
20318;SDS011;10317;47.254;11.314;2024-02-26T13:38:13;1.80;;;1.70;;
20318;SDS011;10317;47.254;11.314;2024-02-26T13:40:39;1.63;;;1.52;;
20318;SDS011;10317;47.254;11.314;2024-02-26T13:43:05;2.70;;;1.40;;
20318;SDS011;10317;47.254;11.314;2024-02-26T13:45:33;2.88;;;1.90;;
20318;SDS011;10317;47.254;11.314;2024-02-26T13:48:04;1.45;;;1.35;;
20318;SDS011;10317;47.254;11.314;2024-02-26T13:50:31;1.27;;;1.27;;
20318;SDS011;10317;47.254;11.314;2024-02-26T13:52:57;1.25;;;1.15;;
20318;SDS011;10317;47.254;11.314;2024-02-26T13:55:25;1.02;;;1.02;;
20318;SDS011;10317;47.254;11.314;2024-02-26T13:57:53;1.48;;;1.48;;
20318;SDS011;10317;47.254;11.314;2024-02-26T14:00:19;0.80;;;0.80;;
20318;SDS011;10317;47.254;11.314;2024-02-26T14:02:45;1.17;;;1.08;;
20318;SDS011;10317;47.254;11.314;2024-02-26T14:05:11;1.05;;;0.90;;
20318;SDS011;10317;47.254;11.314;2024-02-26T14:07:37;1.08;;;1.08;;
20318;SDS011;10317;47.254;11.314;2024-02-26T14:10:03;1.00;;;1.00;;
20318;SDS011;10317;47.254;11.314;2024-02-26T14:12:29;1.08;;;1.08;;
20318;SDS011;10317;47.254;11.314;2024-02-26T14:14:55;1.23;;;1.10;;
20318;SDS011;10317;47.254;11.314;2024-02-26T14:17:23;1.23;;;1.20;;
20318;SDS011;10317;47.254;11.314;2024-02-26T14:19:49;1.02;;;0.93;;
20318;SDS011;10317;47.254;11.314;2024-02-26T14:22:14;1.00;;;0.98;;
20318;SDS011;10317;47.254;11.314;2024-02-26T14:24:41;1.23;;;1.20;;
20318;SDS011;10317;47.254;11.314;2024-02-26T14:27:10;0.95;;;0.95;;
20318;SDS011;10317;47.254;11.314;2024-02-26T14:29:42;1.50;;;1.40;;
20318;SDS011;10317;47.254;11.314;2024-02-26T14:32:08;1.05;;;1.00;;
20318;SDS011;10317;47.254;11.314;2024-02-26T14:34:35;0.98;;;0.90;;
20318;SDS011;10317;47.254;11.314;2024-02-26T14:37:01;0.90;;;0.90;;